TimeCST,TemperatureF,Dew PointF,Humidity,Sea Level PressureIn,VisibilityMPH,Wind Direction,Wind SpeedMPH,Gust SpeedMPH,PrecipitationIn,Events,Conditions,WindDirDegrees,DateUTC
12:03 AM,42.8,41.0,93,30.13,9.0,NNE,6.9,-,N/A,Rain,Light Rain,20,2012-12-12 06:03:00
12:34 AM,42.8,41.0,93,30.13,7.0,North,6.9,-,N/A,Rain,Light Rain,360,2012-12-12 06:34:00
12:36 AM,42.8,41.0,93,30.12,7.0,North,5.8,-,N/A,Rain,Light Rain,360,2012-12-12 06:36:00
12:48 AM,42.8,41.0,93,30.12,8.0,North,8.1,-,N/A,,Light Drizzle,10,2012-12-12 06:48:00
12:49 AM,42.8,41.0,93,30.12,9.0,North,9.2,-,N/A,,Mostly Cloudy,10,2012-12-12 06:49:00
12:51 AM,42.8,41.0,93,30.13,9.0,North,8.1,-,N/A,Rain,Light Rain,10,2012-12-12 06:51:00
12:55 AM,42.3,40.5,93,30.13,9.0,North,8.1,-,0.01,,Light Drizzle,10,2012-12-12 06:55:00
1:03 AM,42.8,39.2,87,30.12,10.0,North,9.2,-,N/A,Rain,Light Rain,10,2012-12-12 07:03:00
1:11 AM,42.8,41.0,93,30.12,10.0,North,9.2,-,N/A,,Partly Cloudy,10,2012-12-12 07:11:00
1:29 AM,42.8,41.0,93,30.13,10.0,North,8.1,-,N/A,,Mostly Cloudy,350,2012-12-12 07:29:00
1:31 AM,42.8,41.0,93,30.13,10.0,North,9.2,-,N/A,,Mostly Cloudy,350,2012-12-12 07:31:00
1:38 AM,42.8,39.2,87,30.13,10.0,North,10.4,-,N/A,,Mostly Cloudy,360,2012-12-12 07:38:00
1:49 AM,41.0,39.2,93,30.12,10.0,North,8.1,-,N/A,,Mostly Cloudy,10,2012-12-12 07:49:00
1:55 AM,41.7,39.4,91,30.12,10.0,North,8.1,-,0.00,,Mostly Cloudy,10,2012-12-12 07:55:00
2:55 AM,41.4,38.8,91,30.09,10.0,NNE,8.1,-,N/A,,Scattered Clouds,20,2012-12-12 08:55:00
3:51 AM,41.0,39.2,93,30.12,10.0,North,5.8,-,N/A,Rain,Light Rain,350,2012-12-12 09:51:00
3:55 AM,41.5,38.5,89,30.12,10.0,North,5.8,-,0.00,Rain,Light Rain,360,2012-12-12 09:55:00
4:04 AM,41.0,39.2,93,30.12,10.0,North,6.9,-,N/A,,Overcast,360,2012-12-12 10:04:00
4:15 AM,41.0,39.2,93,30.12,10.0,North,9.2,-,N/A,Rain,Light Rain,360,2012-12-12 10:15:00
4:55 AM,41.5,38.7,89,30.13,10.0,North,8.1,-,0.01,Rain,Light Rain,10,2012-12-12 10:55:00
5:04 AM,41.0,39.2,93,30.14,10.0,North,6.9,-,N/A,Rain,Light Rain,360,2012-12-12 11:04:00
5:05 AM,41.0,39.2,93,30.13,10.0,North,8.1,-,N/A,Rain,Light Rain,360,2012-12-12 11:05:00
5:55 AM,41.4,38.7,90,30.15,10.0,North,5.8,-,0.00,Rain,Light Rain,350,2012-12-12 11:55:00
5:57 AM,41.0,39.2,93,30.16,10.0,North,5.8,-,N/A,,Mostly Cloudy,350,2012-12-12 11:57:00
6:36 AM,41.0,39.2,93,30.14,10.0,NNE,4.6,-,N/A,Rain,Light Rain,20,2012-12-12 12:36:00
6:55 AM,41.4,38.7,90,30.16,10.0,North,6.9,-,0.00,Rain,Light Rain,350,2012-12-12 12:55:00
6:59 AM,41.0,39.2,93,30.16,10.0,North,5.8,-,N/A,,Mostly Cloudy,10,2012-12-12 12:59:00
7:55 AM,41.9,38.7,88,30.15,10.0,NE,5.8,-,0.01,,Overcast,50,2012-12-12 13:55:00
8:55 AM,42.8,39.4,88,30.21,10.0,NW,6.9,-,N/A,,Overcast,320,2012-12-12 14:55:00
9:55 AM,43.3,38.7,84,30.20,10.0,North,8.1,-,N/A,,Overcast,360,2012-12-12 15:55:00
10:55 AM,45.0,38.7,79,30.18,10.0,NNE,8.1,-,N/A,,Overcast,20,2012-12-12 16:55:00
11:55 AM,47.8,40.5,76,30.17,10.0,NNW,6.9,-,N/A,,Overcast,340,2012-12-12 17:55:00
12:55 PM,48.6,40.5,74,30.16,10.0,NNW,9.2,-,N/A,,Overcast,330,2012-12-12 18:55:00
1:55 PM,48.6,40.5,74,30.16,10.0,NNE,9.2,-,N/A,,Mostly Cloudy,20,2012-12-12 19:55:00
2:55 PM,51.4,39.7,64,30.18,10.0,NNW,8.1,-,N/A,,Mostly Cloudy,340,2012-12-12 20:55:00
3:55 PM,51.6,38.3,60,30.18,10.0,North,8.1,-,N/A,,Mostly Cloudy,350,2012-12-12 21:55:00
4:55 PM,47.5,39.7,75,30.19,10.0,NNW,4.6,-,N/A,,Scattered Clouds,340,2012-12-12 22:55:00
5:55 PM,42.8,38.8,86,30.19,10.0,NNW,3.5,-,N/A,,Partly Cloudy,340,2012-12-12 23:55:00
6:55 PM,40.5,36.9,87,30.20,10.0,North,5.8,-,N/A,,Clear,10,2012-12-13 00:55:00
7:55 PM,39.0,35.2,86,30.20,10.0,North,5.8,-,N/A,,Clear,350,2012-12-13 01:55:00
8:55 PM,38.1,34.7,87,30.21,10.0,Calm,Calm,-,N/A,,Clear,0,2012-12-13 02:55:00
9:55 PM,36.7,34.3,91,30.23,10.0,NW,3.5,-,N/A,,Clear,310,2012-12-13 03:55:00
10:55 PM,37.6,34.5,89,30.24,10.0,WNW,4.6,-,N/A,,Clear,300,2012-12-13 04:55:00
11:55 PM,36.7,33.3,87,30.24,10.0,NNW,3.5,-,N/A,,Clear,330,2012-12-13 05:55:00